Current Metar reports for airports in our Region

Nearby METAR Reports

Metar reports are mainly used by pilots for information on what is happening at their destination during their pre-flight weather briefings and by meteorologists to assist in short term forecasts. A raw Metar is one of the most universal ways to communicate weather information in the world and are usually transmitted by airports, but some come from permanent sanctioned weather observatories.

Listed below are Metars from airports within 100 miles of our station here in Smethport Pa. The first one of course is the Bradford Regional Airport, then the Olean NY airport and so on. Each airport has it's own table to display it's data and at the bottom of the table is 'Raw' Metar for each airport. Most pilots and weather forecasters can look at the raw data and tell you what is up, but we use a script that handles all of the details for us.

KBFD - Bradford, Pennsylvania, USA
Distance from station: NW 7mi, 11km
Updated: Tue, 14-Aug-2018 4:31am EDT
Overcast
Overcast
 Wind from W
Wind: W 3 mph , 6 km/h
Temperature: 63°F , 17°C
Dew Point: 63°F , 17°C
Humidity: 100%
Barometer: 29.99 inHg , 1015.6 hPa
Clouds: Overcast
Visibility: 10 miles , 16 km
Cloud details: Overcast 400 ft
2018/08/14 08:31 KBFD 140831Z AUTO 28003KT 10SM OVC004 17/17 A2999 RMK AO2 T01720167
KOLE - Olean, New York, USA
Distance from station: NNE 37mi, 59km
Updated: Tue, 14-Aug-2018 4:35am EDT
Mist, Overcast
Mist, Overcast
 Wind from calm
Wind: Calm
Temperature: 63°F , 17°C
Dew Point: 63°F , 17°C
Humidity: 100%
Barometer: 29.98 inHg , 1015.2 hPa
Summary: Mist
Clouds: Overcast
Visibility: 3/4 mile , 1.2 km
Cloud details: Overcast 200 ft
2018/08/14 08:35 KOLE 140835Z AUTO 00000KT 3/4SM BR OVC002 17/17 A2998 RMK AO2
 
KELZ - Wellsville, New York, USA
Distance from station: NE 40mi, 64km
Updated: Tue, 14-Aug-2018 4:36am EDT
Mist, Overcast
Mist, Overcast
 Wind from WNW
Wind: WNW 3 mph , 6 km/h
Temperature: 64°F , 18°C
Dew Point: 64°F , 18°C
Humidity: 100%
Barometer: 29.98 inHg , 1015.2 hPa
Summary: Mist
Clouds: Overcast
Visibility: 5 miles , 8 km
Cloud details: Overcast 500 ft
2018/08/14 08:36 KELZ 140836Z AUTO 30003KT 5SM BR OVC005 18/18 A2998 RMK AO2 T01830178
KDUJ - Du Bois, Pennsylvania, USA
Distance from station: SSW 42mi, 68km
Updated: Tue, 14-Aug-2018 4:38am EDT
Mist, Overcast
Mist, Overcast
 Wind from W
Wind: W 7 mph , 11 km/h
Temperature: 63°F , 17°C
Dew Point: 63°F , 17°C
Humidity: 100%
Barometer: 29.98 inHg , 1015.2 hPa
Summary: Mist
Clouds: Overcast
Visibility: 2 1/2 miles , 4 km
Cloud details: Overcast 200 ft
2018/08/14 08:38 KDUJ 140838Z AUTO 27006KT 2 1/2SM BR OVC002 17/17 A2998 RMK AO2 T01720172
 
KJHW - Jamestown, New York, USA
Distance from station: NW 46mi, 75km
Updated: Tue, 14-Aug-2018 3:56am EDT
Overcast
Overcast
 Wind from NNW
Wind: NNW 8 mph , 13 km/h
Temperature: 64°F , 18°C
Dew Point: 64°F , 18°C
Humidity: 100%
Barometer: 30.00 inHg , 1015.9 hPa
Clouds: Overcast
Visibility: 10 miles , 16 km
Cloud details: Partly Cloudy 500 ft
Partly Cloudy 3700 ft
Overcast 4800 ft
2018/08/14 07:56 KJHW 140756Z AUTO 33007KT 10SM SCT005 SCT037 OVC048 18/18 A3000 RMK AO2 SLP153 T01830178
KFIG - Clearfield, Pennsylvania, USA
Distance from station: S 47mi, 75km
Updated: Tue, 14-Aug-2018 4:36am EDT
Rain, Mist, Overcast
Rain, Mist, Overcast
 Wind from SW
Wind: SW 3 mph , 6 km/h
Temperature: 64°F , 18°C
Dew Point: 64°F , 18°C
Humidity: 100%
Barometer: 29.97 inHg , 1014.9 hPa
Summary: Rain, Mist
Clouds: Overcast
Visibility: 3 miles , 5 km
Cloud details: Partly Cloudy 3700 ft
Partly Cloudy 5000 ft
Overcast 6500 ft
2018/08/14 08:36 KFIG 140836Z AUTO 22003KT 3SM RA BR SCT037 SCT050 OVC065 18/18 A2997 RMK AO2 RAB20 P0003 T01780178
 
KDKK - Dunkirk, New York, USA
Distance from station: NW 66mi, 106km
Updated: Tue, 14-Aug-2018 4:15am EDT
Heavy rain, Mist, Overcast
Heavy rain, Mist, Overcast
 Wind from SSE
Wind: SSE 6 mph , 9 km/h
Temperature: 66°F , 19°C
Dew Point: 64°F , 18°C
Humidity: 94%
Barometer: 29.96 inHg , 1014.6 hPa
Summary: Heavy rain, Mist
Clouds: Overcast
Visibility: 5 miles , 8 km
Cloud details: Partly Cloudy 2800 ft
Overcast 4700 ft
2018/08/14 08:15 KDKK 140815Z AUTO 16005KT 5SM +RA BR SCT028 OVC047 19/18 A2996 RMK AO2 P0022 T01890183
KUNV - State College, Pennsylvania, USA
Distance from station: SSE 71mi, 114km
Updated: Mon, 13-Aug-2018 10:47pm EDT
NOT Current
Mist, Mostly cloudy
Mist, Mostly cloudy
 Wind from calm
Wind: Calm
Temperature: 66°F , 19°C
Dew Point: 64°F , 18°C
Humidity: 94%
Barometer: 29.98 inHg , 1015.2 hPa
Summary: Mist
Clouds: Mostly Cloudy
Visibility: 4 miles , 6 km
Cloud details: Partly Cloudy 3000 ft
Mostly Cloudy 6000 ft
2018/08/14 02:47 KUNV 140247Z 00000KT 4SM BR SCT030 BKN060 19/18 A2998
 
KFKL - Franklin, Pennsylvania, USA
Distance from station: WSW 72mi, 116km
Updated: Tue, 14-Aug-2018 4:45am EDT
Overcast
Overcast
 Wind from calm
Wind: Calm
Temperature: 63°F , 17°C
Dew Point: 63°F , 17°C
Humidity: 100%
Clouds: Overcast
Visibility: 7 miles , 11 km
Cloud details: Few Clouds 900 ft
Mostly Cloudy 6500 ft
Overcast 10000 ft
2018/08/14 08:45 KFKL 140845Z AUTO 00000KT 7SM FEW009 BKN065 OVC100 17/17 RMK AO2 RAB19E40 P0000 $
KDSV - Dansville, New York, USA
Distance from station: NE 73mi, 117km
Updated: Tue, 14-Aug-2018 4:33am EDT
Light rain, Overcast
Light rain, Overcast
 Wind from SE
Wind: SE 3 mph , 6 km/h
Temperature: 66°F , 19°C
Dew Point: 64°F , 18°C
Humidity: 94%
Barometer: 29.93 inHg , 1013.5 hPa
Summary: Light Rain
Clouds: Overcast
Visibility: 10 miles , 16 km
Cloud details: Mostly Cloudy 1000 ft
Overcast 7500 ft
2018/08/14 08:33 KDSV 140833Z AUTO 13003KT 10SM -RA BKN010 OVC075 19/18 A2993 RMK AO2 P0002 T01940178
 
KIDI - Indiana/Stewart, Pennsylvania, USA
Distance from station: SSW 81mi, 130km
Updated: Tue, 14-Aug-2018 4:35am EDT
Mist, Overcast
Mist, Overcast
 Wind from WSW
Wind: WSW 5 mph , 7 km/h
Temperature: 63°F , 17°C
Dew Point: 63°F , 17°C
Humidity: 100%
Barometer: 30.03 inHg , 1016.9 hPa
Summary: Mist
Clouds: Overcast
Visibility: 4 miles , 6 km
Cloud details: Overcast 400 ft
2018/08/14 08:35 KIDI 140835Z AUTO 25004KT 4SM BR OVC004 17/17 A3003 RMK A01
KBUF - Buffalo/Cheektow, New York, USA
Distance from station: N 84mi, 136km
Updated: Tue, 14-Aug-2018 3:54am EDT
Overcast
Overcast
 Wind from W
Wind: W 7 mph , 11 km/h
Temperature: 70°F , 21°C
Dew Point: 64°F , 18°C
Humidity: 83%
Barometer: 29.93 inHg , 1013.5 hPa
Clouds: Overcast
Visibility: 10 miles , 16 km
Cloud details: Mostly Cloudy 5500 ft
Mostly Cloudy 10000 ft
Overcast 12000 ft
2018/08/14 07:54 KBUF 140754Z 26006KT 10SM BKN055 BKN100 OVC120 21/18 A2993 RMK AO2 SLP132 T02110178
 
KGKJ - Meadville, Pennsylvania, USA
Distance from station: W 86mi, 138km
Updated: Tue, 14-Aug-2018 3:53am EDT
Light rain, Overcast
Light rain, Overcast
 Wind from calm
Wind: Calm
Temperature: 66°F , 19°C
Dew Point: 66°F , 19°C
Humidity: 100%
Barometer: 30.00 inHg , 1015.9 hPa
Summary: Light Rain
Clouds: Overcast
Visibility: 10 miles , 16 km
Cloud details: Overcast 9500 ft
2018/08/14 07:53 KGKJ 140753Z AUTO 00000KT 10SM -RA OVC095 19/19 A3000 RMK AO2 RAB22 SLP151 P0000 T01890189
KERI - Erie, Pennsylvania, USA
Distance from station: WNW 87mi, 140km
Updated: Tue, 14-Aug-2018 4:34am EDT
Light rain, Mist, Overcast
Light rain, Mist, Overcast
 Wind from SSE
Wind: SSE 9 mph , 15 km/h
Temperature: 68°F , 20°C
Dew Point: 64°F , 18°C
Humidity: 88%
Barometer: 29.96 inHg , 1014.6 hPa
Summary: Light rain, Mist
Clouds: Overcast
Visibility: 5 miles , 8 km
Cloud details: Few Clouds 4700 ft
Partly Cloudy 5500 ft
Overcast 8000 ft
2018/08/14 08:34 KERI 140834Z AUTO 15008KT 5SM -RA BR FEW047 SCT055 OVC080 20/18 A2996 RMK AO2 P0009 T02000178 $
 
KELM - Elmira, New York, USA
Distance from station: ENE 90mi, 145km
Updated: Tue, 14-Aug-2018 4:41am EDT
Heavy rain, Mist, Overcast
Heavy rain, Mist, Overcast
 Wind from N
Wind: N 5 mph , 7 km/h
Temperature: 68°F , 20°C
Dew Point: 66°F , 19°C
Humidity: 94%
Barometer: 29.90 inHg , 1012.5 hPa
Summary: Heavy rain, Mist
Clouds: Overcast
Visibility: 3 miles , 5 km
Cloud details: Few Clouds 800 ft
Partly Cloudy 2000 ft
Overcast 3600 ft
2018/08/14 08:41 KELM 140841Z AUTO 36004KT 3SM +RA BR FEW008 SCT020 OVC036 20/19 A2990 RMK AO2 LTG DSNT N AND W P0010 T02000189 $
KIPT - Williamsport, Pennsylvania, USA
Distance from station: ESE 91mi, 146km
Updated: Tue, 14-Aug-2018 4:28am EDT
Overcast
Overcast
 Wind from W
Wind: W 8 mph , 13 km/h
Temperature: 68°F , 20°C
Dew Point: 66°F , 19°C
Humidity: 94%
Barometer: 29.88 inHg , 1011.9 hPa
Clouds: Overcast
Visibility: 10 miles , 16 km
Cloud details: Few Clouds 400 ft
Mostly Cloudy 3500 ft
Overcast 12000 ft
2018/08/14 08:28 KIPT 140828Z AUTO 27007KT 10SM FEW004 BKN035 OVC120 20/19 A2988 RMK AO2 T02000189
 
KBTP - Butler Co., Pennsylvania, USA
Distance from station: SW 98mi, 157km
Updated: Tue, 14-Aug-2018 4:40am EDT
Fog, Mostly cloudy
Fog, Mostly cloudy
 Wind from calm
Wind: Calm
Temperature: 63°F , 17°C
Dew Point: 61°F , 16°C
Humidity: 94%
Barometer: 30.00 inHg , 1015.9 hPa
Summary: Fog
Clouds: Mostly Cloudy
Visibility: 1/2 mile , 0.8 km
Cloud details: Few Clouds 2900 ft
Mostly Cloudy 10000 ft
2018/08/14 08:40 KBTP 140840Z AUTO 00000KT 1/2SM FG FEW029 BKN100 17/16 A3000 RMK AO2 RVRNO
KAOO - Altoona, Pennsylvania, USA
Distance from station: S 99mi, 159km
Updated: Tue, 14-Aug-2018 3:53am EDT
Overcast
Overcast
 Wind from WNW
Wind: WNW 3 mph , 6 km/h
Temperature: 66°F , 19°C
Dew Point: 63°F , 17°C
Humidity: 88%
Barometer: 29.97 inHg , 1014.9 hPa
Clouds: Overcast
Visibility: 9 miles , 14 km
Cloud details: Mostly Cloudy 3900 ft
Mostly Cloudy 4700 ft
Overcast 5500 ft
2018/08/14 07:53 KAOO 140753Z AUTO 29003KT 9SM BKN039 BKN047 OVC055 19/17 A2997 RMK AO2 SLP141 T01890167
 
KPIT - Pittsburg, Pennsylvania, USA
Distance from station: SSW 126mi, 203km
Updated: Tue, 14-Aug-2018 3:51am EDT
Mostly Cloudy
Mostly Cloudy
 Wind from WSW
Wind: WSW 5 mph , 7 km/h
Temperature: 63°F , 17°C
Dew Point: 63°F , 17°C
Humidity: 100%
Barometer: 29.99 inHg , 1015.6 hPa
Clouds: Mostly Cloudy
Visibility: 9 miles , 14 km
Cloud details: Partly Cloudy 3500 ft
Mostly Cloudy 7000 ft
Mostly Cloudy 14000 ft
2018/08/14 07:51 KPIT 140751Z 24004KT 9SM SCT035 BKN070 BKN140 17/17 A2999 RMK AO2 SLP158 T01670167
KCLE - Cleveland, Ohio, USA
Distance from station: WSW 160mi, 258km
Updated: Tue, 14-Aug-2018 3:51am EDT
Overcast
Overcast
 Wind from S
Wind: S 5 mph , 7 km/h
Temperature: 70°F , 21°C
Dew Point: 64°F , 18°C
Humidity: 83%
Barometer: 30.02 inHg , 1016.6 hPa
Clouds: Overcast
Visibility: 10 miles , 16 km
Cloud details: Mostly Cloudy 9500 ft
Overcast 14000 ft
2018/08/14 07:51 KCLE 140751Z 18004KT 10SM BKN095 OVC140 21/18 A3002 RMK AO2 SLP160 T02060183 $